createdAt,value
2023-02-11T00:04:14.706Z,16.80
2023-02-11T00:09:16.421Z,16.70
2023-02-11T00:14:18.473Z,16.70
2023-02-11T00:19:20.394Z,16.70
2023-02-11T00:24:22.042Z,16.60
2023-02-11T00:29:23.937Z,16.60
2023-02-11T00:34:25.580Z,16.60
2023-02-11T00:39:27.524Z,16.60
2023-02-11T00:44:29.321Z,16.60
2023-02-11T00:49:31.146Z,16.60
2023-02-11T00:54:32.924Z,16.50
2023-02-11T00:59:34.622Z,16.50
2023-02-11T01:04:36.364Z,16.50
2023-02-11T01:09:38.353Z,16.50
2023-02-11T01:14:40.225Z,16.50
2023-02-11T01:19:42.195Z,16.40
2023-02-11T01:24:43.825Z,16.50
2023-02-11T01:29:45.735Z,16.50
2023-02-11T01:34:47.464Z,16.40
2023-02-11T01:39:49.543Z,16.50
2023-02-11T01:44:52.539Z,16.50
2023-02-11T01:49:56.958Z,16.40
2023-02-11T01:55:24.647Z,16.40
2023-02-11T02:05:59.700Z,16.40
2023-02-11T02:11:01.301Z,16.40
2023-02-11T02:16:09.790Z,16.40
2023-02-11T02:21:29.716Z,16.30
2023-02-11T02:26:34.304Z,16.30
2023-02-11T02:31:39.206Z,16.40
2023-02-11T02:36:47.969Z,16.40
2023-02-11T02:41:50.881Z,16.40
2023-02-11T02:46:52.674Z,16.30
2023-02-11T02:52:03.732Z,16.30
2023-02-11T02:57:24.312Z,16.30
2023-02-11T03:02:45.794Z,16.30
2023-02-11T03:08:02.515Z,16.30
2023-02-11T03:13:05.297Z,16.20
2023-02-11T03:18:08.827Z,16.20
2023-02-11T03:23:10.495Z,16.20
2023-02-11T03:28:24.590Z,16.20
2023-02-11T03:33:32.617Z,16.20
2023-02-11T03:38:37.761Z,16.20
2023-02-11T03:43:44.790Z,16.10
2023-02-11T03:48:51.117Z,16.10
2023-02-11T03:53:55.137Z,16.20
2023-02-11T03:58:57.088Z,16.10
2023-02-11T04:03:58.988Z,16.10
2023-02-11T04:09:01.153Z,16.10
2023-02-11T04:14:02.959Z,16.10
2023-02-11T04:19:05.183Z,16.00
2023-02-11T04:24:06.944Z,16.10
2023-02-11T04:29:08.977Z,16.10
2023-02-11T04:34:10.693Z,16.10
2023-02-11T04:39:12.534Z,16.00
2023-02-11T04:44:14.425Z,16.00
2023-02-11T06:06:29.954Z,16.60
2023-02-11T06:11:31.543Z,16.80
2023-02-11T06:16:33.262Z,16.80
2023-02-11T06:21:43.563Z,16.80
2023-02-11T06:26:46.046Z,16.90
2023-02-11T06:31:48.007Z,16.80
2023-02-11T06:36:49.900Z,16.80
2023-02-11T06:41:51.810Z,16.70
2023-02-11T06:46:53.560Z,16.70
2023-02-11T06:51:55.370Z,16.80
2023-02-11T06:56:57.128Z,16.80
2023-02-11T07:01:59.009Z,16.80
2023-02-11T07:07:01.062Z,16.80
2023-02-11T07:12:02.784Z,16.70
2023-02-11T07:17:04.945Z,16.70
2023-02-11T07:22:06.701Z,16.70
2023-02-11T07:27:08.977Z,16.70
2023-02-11T07:32:10.808Z,16.70
2023-02-11T07:37:12.608Z,16.70
2023-02-11T07:42:14.352Z,16.70
2023-02-11T07:47:16.151Z,16.70
2023-02-11T07:52:17.929Z,16.80
2023-02-11T07:57:19.706Z,17.00
2023-02-11T08:02:21.515Z,17.20
2023-02-11T08:07:23.374Z,17.40
2023-02-11T08:12:25.049Z,17.60
2023-02-11T08:17:26.808Z,17.60
2023-02-11T08:22:30.960Z,17.60
2023-02-11T08:27:32.725Z,17.60
2023-02-11T08:32:35.018Z,17.60
2023-02-11T08:37:36.678Z,17.70
2023-02-11T08:42:38.815Z,17.80
2023-02-11T08:47:40.711Z,17.80
2023-02-11T08:52:43.143Z,17.80
2023-02-11T08:57:46.133Z,17.80
2023-02-11T09:02:48.300Z,17.80
2023-02-11T09:07:50.218Z,17.80
2023-02-11T09:12:51.964Z,17.90
2023-02-11T09:17:53.702Z,17.90
2023-02-11T09:22:57.265Z,17.90
2023-02-11T09:27:59.015Z,17.80
2023-02-11T09:33:00.953Z,17.80
2023-02-11T09:38:02.732Z,17.80
2023-02-11T09:43:07.280Z,17.80
2023-02-11T09:48:16.328Z,17.70
2023-02-11T09:53:20.308Z,17.70
2023-02-11T09:58:22.122Z,17.70
2023-02-11T10:03:29.788Z,17.70
2023-02-11T10:08:42.817Z,17.70
2023-02-11T10:14:01.939Z,17.70
2023-02-11T10:19:14.120Z,17.60
2023-02-11T10:24:16.470Z,17.50
2023-02-11T10:29:30.410Z,17.50
2023-02-11T10:34:32.357Z,17.50
2023-02-11T10:39:34.083Z,17.40
2023-02-11T10:45:02.131Z,17.30
2023-02-11T10:50:20.692Z,17.30
2023-02-11T10:55:26.134Z,17.30
2023-02-11T11:00:38.958Z,17.20
2023-02-11T11:05:49.696Z,17.20
2023-02-11T11:11:11.681Z,17.20
2023-02-11T11:16:13.411Z,17.10
2023-02-11T11:21:15.116Z,17.10
2023-02-11T11:26:17.704Z,17.00
2023-02-11T11:31:24.504Z,17.10
2023-02-11T11:36:34.907Z,17.10
2023-02-11T11:41:36.731Z,17.10
2023-02-11T11:46:40.721Z,17.10
2023-02-11T11:51:45.351Z,17.00
2023-02-11T11:57:19.514Z,17.00
2023-02-11T12:02:39.615Z,17.00
2023-02-11T12:07:50.263Z,17.00
2023-02-11T12:12:51.938Z,16.90
2023-02-11T12:18:12.034Z,17.00
2023-02-11T12:23:23.132Z,16.90
2023-02-11T12:28:30.876Z,16.90
2023-02-11T12:33:44.813Z,16.80
2023-02-11T12:38:49.164Z,16.90
2023-02-11T12:43:51.228Z,16.90
2023-02-11T12:49:09.931Z,16.90
2023-02-11T12:54:11.785Z,16.80
2023-02-11T12:59:17.658Z,16.90
2023-02-11T13:04:42.335Z,16.90
2023-02-11T13:09:49.096Z,16.80
2023-02-11T13:14:52.613Z,16.80
2023-02-11T13:19:57.683Z,16.80
2023-02-11T13:25:06.951Z,16.70
2023-02-11T13:30:21.103Z,16.70
2023-02-11T13:35:30.956Z,16.70
2023-02-11T13:40:37.119Z,16.70
2023-02-11T13:45:39.032Z,16.70
2023-02-11T13:50:47.770Z,16.70
2023-02-11T13:55:51.291Z,16.70
2023-02-11T14:00:53.304Z,16.70
2023-02-11T14:06:29.075Z,16.70
2023-02-11T14:11:33.836Z,16.70
2023-02-11T14:16:38.280Z,16.70
2023-02-11T14:21:41.906Z,16.70
2023-02-11T14:26:55.890Z,16.70
2023-02-11T14:32:03.344Z,16.80
2023-02-11T14:37:31.342Z,16.80
2023-02-11T14:42:33.102Z,16.90
2023-02-11T14:48:13.197Z,16.90
2023-02-11T14:53:19.005Z,16.90
2023-02-11T14:58:24.714Z,17.00
2023-02-11T15:03:27.417Z,17.00
2023-02-11T15:08:30.871Z,17.00
2023-02-11T15:13:33.112Z,17.00
2023-02-11T15:18:41.010Z,17.00
2023-02-11T15:23:54.816Z,17.10
2023-02-11T15:28:56.471Z,17.10
2023-02-11T15:34:06.713Z,17.30
2023-02-11T15:39:19.041Z,17.40
2023-02-11T15:44:28.351Z,17.70
2023-02-11T15:49:30.148Z,17.80
2023-02-11T15:54:32.469Z,18.00
2023-02-11T15:59:38.357Z,18.00
2023-02-11T16:04:48.952Z,18.00
2023-02-11T16:09:57.263Z,18.00
2023-02-11T16:15:00.378Z,18.00
2023-02-11T16:20:02.160Z,18.00
2023-02-11T16:25:03.964Z,18.00
2023-02-11T16:30:06.005Z,18.00
2023-02-11T16:35:10.872Z,18.10
2023-02-11T16:40:12.924Z,18.20
2023-02-11T16:45:15.591Z,18.30
2023-02-11T16:50:23.992Z,18.40
2023-02-11T16:55:25.607Z,18.40
2023-02-11T17:00:27.376Z,18.30
2023-02-11T17:05:29.288Z,18.30
2023-02-11T17:10:31.075Z,18.30
2023-02-11T17:15:32.831Z,18.40
2023-02-11T17:20:34.902Z,18.40
2023-02-11T17:25:40.758Z,18.50
2023-02-11T17:30:44.191Z,18.40
2023-02-11T17:35:46.217Z,18.40
2023-02-11T17:40:56.591Z,18.30
2023-02-11T17:45:58.406Z,18.40
2023-02-11T17:51:00.787Z,18.40
2023-02-11T17:56:06.460Z,18.50
2023-02-11T18:01:08.469Z,18.50
2023-02-11T18:06:11.424Z,18.50
2023-02-11T18:11:13.319Z,18.50
2023-02-11T18:16:15.932Z,18.50
2023-02-11T18:21:18.975Z,18.40
2023-02-11T18:26:21.397Z,18.30
2023-02-11T18:31:23.651Z,18.20
2023-02-11T18:36:25.474Z,18.20
2023-02-11T18:41:27.404Z,18.10
2023-02-11T18:46:29.987Z,18.00
2023-02-11T18:51:32.539Z,18.00
2023-02-11T18:56:34.415Z,18.20
2023-02-11T19:01:36.238Z,18.20
2023-02-11T19:06:38.198Z,18.30
2023-02-11T19:11:54.196Z,18.30
2023-02-11T19:16:57.128Z,18.30
2023-02-11T19:21:59.756Z,18.30
2023-02-11T19:27:02.641Z,18.40
2023-02-11T19:32:06.009Z,18.50
2023-02-11T19:37:12.696Z,18.50
2023-02-11T19:42:14.490Z,18.60
2023-02-11T19:47:16.322Z,18.50
2023-02-11T19:52:18.315Z,18.50
2023-02-11T19:57:19.946Z,18.50
2023-02-11T20:02:21.734Z,18.40
2023-02-11T20:07:23.632Z,18.30
2023-02-11T20:12:25.423Z,18.20
2023-02-11T20:17:27.191Z,18.10
2023-02-11T20:22:31.009Z,18.00
2023-02-11T20:27:33.519Z,17.90
2023-02-11T20:32:38.647Z,17.90
2023-02-11T20:37:43.954Z,17.80
2023-02-11T20:42:45.890Z,17.80
2023-02-11T20:47:47.755Z,17.70
2023-02-11T20:52:49.446Z,17.70
2023-02-11T20:57:51.192Z,17.60
2023-02-11T21:02:53.105Z,17.50
2023-02-11T21:07:54.845Z,17.60
2023-02-11T21:12:57.055Z,17.50
2023-02-11T21:17:58.833Z,17.50
2023-02-11T21:23:00.833Z,17.40
2023-02-11T21:28:02.644Z,17.40
2023-02-11T21:33:04.677Z,17.40
2023-02-11T21:38:06.510Z,17.30
2023-02-11T21:43:08.405Z,17.30
2023-02-11T21:48:10.664Z,17.30
2023-02-11T21:53:12.982Z,17.20
2023-02-11T21:58:14.819Z,17.10
2023-02-11T22:03:16.617Z,17.10
2023-02-11T22:08:20.248Z,17.10
2023-02-11T22:13:22.236Z,17.00
2023-02-11T22:18:23.935Z,16.90
2023-02-11T22:23:25.649Z,16.90
2023-02-11T22:28:27.275Z,16.90
2023-02-11T22:33:28.959Z,16.80
2023-02-11T22:38:31.178Z,16.90
2023-02-11T22:43:32.838Z,16.90
2023-02-11T22:48:35.579Z,16.80
2023-02-11T22:53:37.549Z,16.90
2023-02-11T22:58:39.359Z,16.80
2023-02-11T23:03:41.327Z,16.80
2023-02-11T23:08:43.363Z,16.80
2023-02-11T23:13:45.859Z,16.70
2023-02-11T23:18:48.863Z,16.70
2023-02-11T23:23:54.666Z,16.70
2023-02-11T23:28:57.324Z,16.70
2023-02-11T23:33:59.287Z,16.70
2023-02-11T23:39:01.038Z,16.70
2023-02-11T23:44:02.682Z,16.70
2023-02-11T23:49:04.432Z,16.70
2023-02-11T23:54:06.074Z,16.70
2023-02-11T23:59:08.093Z,16.70
